sensor_id;sensor_type;location;lat;lon;timestamp;pressure;altitude;pressure_sealevel;temperature;humidity
59757;BME280;45631;51.962;5.974;2024-01-15T00:01:31;100104.03;;;0.49;100.00
59757;BME280;45631;51.962;5.974;2024-01-15T00:03:59;100104.03;;;0.49;100.00
59757;BME280;45631;51.962;5.974;2024-01-15T00:06:29;100099.09;;;0.43;100.00
59757;BME280;45631;51.962;5.974;2024-01-15T00:08:59;100102.56;;;0.42;100.00
59757;BME280;45631;51.962;5.974;2024-01-15T00:11:28;100093.03;;;0.42;100.00
59757;BME280;45631;51.962;5.974;2024-01-15T00:13:56;100090.69;;;0.36;100.00
59757;BME280;45631;51.962;5.974;2024-01-15T00:16:24;100092.53;;;0.32;100.00
59757;BME280;45631;51.962;5.974;2024-01-15T00:18:52;100094.22;;;0.33;100.00
59757;BME280;45631;51.962;5.974;2024-01-15T00:21:20;100093.59;;;0.27;100.00
59757;BME280;45631;51.962;5.974;2024-01-15T00:23:51;100088.41;;;0.27;100.00
59757;BME280;45631;51.962;5.974;2024-01-15T00:26:19;100091.81;;;0.29;100.00
59757;BME280;45631;51.962;5.974;2024-01-15T00:28:47;100088.66;;;0.21;100.00
59757;BME280;45631;51.962;5.974;2024-01-15T00:31:16;100086.06;;;0.21;100.00
59757;BME280;45631;51.962;5.974;2024-01-15T00:33:44;100081.66;;;0.23;100.00
59757;BME280;45631;51.962;5.974;2024-01-15T00:36:12;100077.53;;;0.17;100.00
59757;BME280;45631;51.962;5.974;2024-01-15T00:38:41;100081.03;;;0.16;100.00
59757;BME280;45631;51.962;5.974;2024-01-15T00:41:11;100070.22;;;0.05;100.00
59757;BME280;45631;51.962;5.974;2024-01-15T00:43:40;100066.63;;;0.09;100.00
59757;BME280;45631;51.962;5.974;2024-01-15T00:46:08;100068.56;;;0.02;100.00
59757;BME280;45631;51.962;5.974;2024-01-15T00:48:36;100069.56;;;-0.02;100.00
59757;BME280;45631;51.962;5.974;2024-01-15T00:51:05;100063.69;;;-0.07;100.00
59757;BME280;45631;51.962;5.974;2024-01-15T00:53:34;100063.88;;;-0.12;100.00
59757;BME280;45631;51.962;5.974;2024-01-15T00:56:02;100063.91;;;-0.13;100.00
59757;BME280;45631;51.962;5.974;2024-01-15T00:58:31;100052.00;;;-0.18;100.00
59757;BME280;45631;51.962;5.974;2024-01-15T01:00:59;100056.41;;;-0.21;100.00
59757;BME280;45631;51.962;5.974;2024-01-15T01:03:28;100052.06;;;-0.21;100.00
59757;BME280;45631;51.962;5.974;2024-01-15T01:05:56;100049.50;;;-0.21;100.00
59757;BME280;45631;51.962;5.974;2024-01-15T01:08:24;100045.25;;;-0.23;100.00
59757;BME280;45631;51.962;5.974;2024-01-15T01:10:53;100041.06;;;-0.26;100.00
59757;BME280;45631;51.962;5.974;2024-01-15T01:13:21;100038.56;;;-0.29;100.00
59757;BME280;45631;51.962;5.974;2024-01-15T01:15:51;100033.41;;;-0.29;100.00
59757;BME280;45631;51.962;5.974;2024-01-15T01:18:19;100032.56;;;-0.29;100.00
59757;BME280;45631;51.962;5.974;2024-01-15T01:20:47;100021.59;;;-0.36;100.00
59757;BME280;45631;51.962;5.974;2024-01-15T01:23:15;100024.22;;;-0.38;100.00
59757;BME280;45631;51.962;5.974;2024-01-15T01:25:43;100023.38;;;-0.38;100.00
59757;BME280;45631;51.962;5.974;2024-01-15T01:28:12;100016.56;;;-0.41;100.00
59757;BME280;45631;51.962;5.974;2024-01-15T01:30:40;100022.53;;;-0.39;100.00
59757;BME280;45631;51.962;5.974;2024-01-15T01:33:10;100028.56;;;-0.38;100.00
59757;BME280;45631;51.962;5.974;2024-01-15T01:35:38;100027.75;;;-0.40;100.00
59757;BME280;45631;51.962;5.974;2024-01-15T01:38:06;100027.75;;;-0.40;100.00
59757;BME280;45631;51.962;5.974;2024-01-15T01:40:34;100031.38;;;-0.46;100.00
59757;BME280;45631;51.962;5.974;2024-01-15T01:43:03;100039.97;;;-0.45;100.00
59757;BME280;45631;51.962;5.974;2024-01-15T01:45:31;100028.91;;;-0.49;100.00
59757;BME280;45631;51.962;5.974;2024-01-15T01:48:00;100037.53;;;-0.50;100.00
59757;BME280;45631;51.962;5.974;2024-01-15T01:50:31;100030.66;;;-0.51;100.00
59757;BME280;45631;51.962;5.974;2024-01-15T01:52:59;100038.44;;;-0.51;100.00
59757;BME280;45631;51.962;5.974;2024-01-15T01:55:31;100037.66;;;-0.55;100.00
59757;BME280;45631;51.962;5.974;2024-01-15T01:58:00;100041.16;;;-0.56;100.00
59757;BME280;45631;51.962;5.974;2024-01-15T02:00:30;100041.28;;;-0.60;100.00
59757;BME280;45631;51.962;5.974;2024-01-15T02:02:58;100045.56;;;-0.59;100.00
59757;BME280;45631;51.962;5.974;2024-01-15T02:05:27;100032.59;;;-0.58;100.00
59757;BME280;45631;51.962;5.974;2024-01-15T02:07:57;100035.19;;;-0.58;100.00
59757;BME280;45631;51.962;5.974;2024-01-15T02:10:25;100033.53;;;-0.60;100.00
59757;BME280;45631;51.962;5.974;2024-01-15T02:12:53;100031.81;;;-0.60;100.00
59757;BME280;45631;51.962;5.974;2024-01-15T02:15:21;100029.31;;;-0.63;100.00
59757;BME280;45631;51.962;5.974;2024-01-15T02:17:59;100032.91;;;-0.67;100.00
59757;BME280;45631;51.962;5.974;2024-01-15T02:20:28;100027.88;;;-0.72;100.00
59757;BME280;45631;51.962;5.974;2024-01-15T02:23:11;100024.50;;;-0.74;100.00
59757;BME280;45631;51.962;5.974;2024-01-15T02:25:41;100030.47;;;-0.72;100.00
59757;BME280;45631;51.962;5.974;2024-01-15T02:28:11;100030.47;;;-0.72;100.00
59757;BME280;45631;51.962;5.974;2024-01-15T02:30:40;100033.09;;;-0.73;100.00
59757;BME280;45631;51.962;5.974;2024-01-15T02:33:10;100027.06;;;-0.72;100.00
59757;BME280;45631;51.962;5.974;2024-01-15T02:35:39;100033.19;;;-0.76;100.00
59757;BME280;45631;51.962;5.974;2024-01-15T02:38:07;100040.03;;;-0.75;100.00
59757;BME280;45631;51.962;5.974;2024-01-15T02:40:38;100032.41;;;-0.78;100.00
59757;BME280;45631;51.962;5.974;2024-01-15T02:43:06;100028.88;;;-0.76;100.00
59757;BME280;45631;51.962;5.974;2024-01-15T02:45:34;100024.53;;;-0.75;100.00
59757;BME280;45631;51.962;5.974;2024-01-15T02:48:02;100031.50;;;-0.77;100.00
59757;BME280;45631;51.962;5.974;2024-01-15T02:50:31;100047.09;;;-0.80;100.00
59757;BME280;45631;51.962;5.974;2024-01-15T02:52:59;100070.34;;;-0.80;100.00
59757;BME280;45631;51.962;5.974;2024-01-15T02:55:27;100064.88;;;-0.71;100.00
59757;BME280;45631;51.962;5.974;2024-01-15T02:57:59;100055.31;;;-0.68;100.00
59757;BME280;45631;51.962;5.974;2024-01-15T03:00:27;100051.88;;;-0.68;100.00
59757;BME280;45631;51.962;5.974;2024-01-15T03:02:56;100039.69;;;-0.64;100.00
59757;BME280;45631;51.962;5.974;2024-01-15T03:05:24;100037.97;;;-0.64;100.00
59757;BME280;45631;51.962;5.974;2024-01-15T03:07:52;100042.28;;;-0.64;100.00
59757;BME280;45631;51.962;5.974;2024-01-15T03:10:22;100039.66;;;-0.63;100.00
59757;BME280;45631;51.962;5.974;2024-01-15T03:12:50;100035.25;;;-0.59;100.00
59757;BME280;45631;51.962;5.974;2024-01-15T03:15:20;100036.94;;;-0.58;100.00
59757;BME280;45631;51.962;5.974;2024-01-15T03:17:48;100031.72;;;-0.57;100.00
59757;BME280;45631;51.962;5.974;2024-01-15T03:20:16;100027.31;;;-0.53;100.00
59757;BME280;45631;51.962;5.974;2024-01-15T03:22:45;100032.44;;;-0.52;100.00
59757;BME280;45631;51.962;5.974;2024-01-15T03:25:13;100032.50;;;-0.55;100.00
59757;BME280;45631;51.962;5.974;2024-01-15T03:27:41;100031.63;;;-0.54;100.00
59757;BME280;45631;51.962;5.974;2024-01-15T03:30:10;100026.50;;;-0.55;100.00
59757;BME280;45631;51.962;5.974;2024-01-15T03:32:40;100031.63;;;-0.54;100.00
59757;BME280;45631;51.962;5.974;2024-01-15T03:35:08;100030.03;;;-0.58;100.00
59757;BME280;45631;51.962;5.974;2024-01-15T03:37:36;100019.69;;;-0.58;100.00
59757;BME280;45631;51.962;5.974;2024-01-15T03:40:06;100021.56;;;-0.63;100.00
59757;BME280;45631;51.962;5.974;2024-01-15T03:42:34;100021.53;;;-0.61;100.00
59757;BME280;45631;51.962;5.974;2024-01-15T03:45:03;100027.59;;;-0.62;100.00
59757;BME280;45631;51.962;5.974;2024-01-15T03:47:32;100018.22;;;-0.65;100.00
59757;BME280;45631;51.962;5.974;2024-01-15T03:50:05;100017.50;;;-0.70;100.00
59757;BME280;45631;51.962;5.974;2024-01-15T03:52:36;100014.97;;;-0.72;100.00
59757;BME280;45631;51.962;5.974;2024-01-15T03:55:05;100017.66;;;-0.75;100.00
59757;BME280;45631;51.962;5.974;2024-01-15T03:57:33;100014.16;;;-0.74;100.00
59757;BME280;45631;51.962;5.974;2024-01-15T04:00:02;100009.97;;;-0.76;100.00
59757;BME280;45631;51.962;5.974;2024-01-15T04:02:31;100011.56;;;-0.74;100.00
59757;BME280;45631;51.962;5.974;2024-01-15T04:04:59;100016.72;;;-0.72;100.00
59757;BME280;45631;51.962;5.974;2024-01-15T04:07:29;100017.56;;;-0.72;100.00
59757;BME280;45631;51.962;5.974;2024-01-15T04:09:57;100020.09;;;-0.70;100.00
59757;BME280;45631;51.962;5.974;2024-01-15T04:12:26;100012.22;;;-0.67;100.00
59757;BME280;45631;51.962;5.974;2024-01-15T04:14:54;100009.63;;;-0.65;100.00
59757;BME280;45631;51.962;5.974;2024-01-15T04:17:22;100003.41;;;-0.60;100.00
59757;BME280;45631;51.962;5.974;2024-01-15T04:19:51;100005.94;;;-0.58;100.00
59757;BME280;45631;51.962;5.974;2024-01-15T04:22:19;100002.50;;;-0.59;100.00
59757;BME280;45631;51.962;5.974;2024-01-15T04:24:48;100007.53;;;-0.54;100.00
59757;BME280;45631;51.962;5.974;2024-01-15T04:27:17;99997.97;;;-0.52;100.00
59757;BME280;45631;51.962;5.974;2024-01-15T04:29:45;99991.09;;;-0.52;100.00
59757;BME280;45631;51.962;5.974;2024-01-15T04:32:13;99987.69;;;-0.54;100.00
59757;BME280;45631;51.962;5.974;2024-01-15T04:34:43;99983.28;;;-0.50;100.00
59757;BME280;45631;51.962;5.974;2024-01-15T04:37:13;99984.06;;;-0.48;100.00
59757;BME280;45631;51.962;5.974;2024-01-15T04:39:41;99978.06;;;-0.48;100.00
59757;BME280;45631;51.962;5.974;2024-01-15T04:42:11;99979.00;;;-0.51;100.00
59757;BME280;45631;51.962;5.974;2024-01-15T04:44:39;99979.00;;;-0.51;100.00
59757;BME280;45631;51.962;5.974;2024-01-15T04:47:07;99973.06;;;-0.53;100.00
59757;BME280;45631;51.962;5.974;2024-01-15T04:49:35;99969.63;;;-0.54;100.00
59757;BME280;45631;51.962;5.974;2024-01-15T04:52:04;99972.31;;;-0.57;100.00
59757;BME280;45631;51.962;5.974;2024-01-15T04:54:32;99980.88;;;-0.56;100.00
59757;BME280;45631;51.962;5.974;2024-01-15T04:57:00;99966.25;;;-0.56;100.00
59757;BME280;45631;51.962;5.974;2024-01-15T04:59:33;99967.19;;;-0.58;100.00
59757;BME280;45631;51.962;5.974;2024-01-15T05:02:01;99962.88;;;-0.58;100.00
59757;BME280;45631;51.962;5.974;2024-01-15T05:04:29;99967.25;;;-0.60;100.00
59757;BME280;45631;51.962;5.974;2024-01-15T05:06:58;99953.53;;;-0.62;100.00
59757;BME280;45631;51.962;5.974;2024-01-15T05:09:26;99961.22;;;-0.60;100.00
59757;BME280;45631;51.962;5.974;2024-01-15T05:11:59;99951.94;;;-0.66;100.00
59757;BME280;45631;51.962;5.974;2024-01-15T05:14:27;99953.69;;;-0.66;100.00
59757;BME280;45631;51.962;5.974;2024-01-15T05:16:56;99948.59;;;-0.68;100.00
59757;BME280;45631;51.962;5.974;2024-01-15T05:19:27;99941.72;;;-0.69;100.00
59757;BME280;45631;51.962;5.974;2024-01-15T05:21:55;99941.72;;;-0.69;100.00
59757;BME280;45631;51.962;5.974;2024-01-15T05:24:24;99940.03;;;-0.70;100.00
59757;BME280;45631;51.962;5.974;2024-01-15T05:26:53;99938.50;;;-0.76;100.00
59757;BME280;45631;51.962;5.974;2024-01-15T05:29:21;99934.22;;;-0.77;100.00
59757;BME280;45631;51.962;5.974;2024-01-15T05:31:49;99931.56;;;-0.75;100.00
59757;BME280;45631;51.962;5.974;2024-01-15T05:34:19;99938.44;;;-0.74;100.00
59757;BME280;45631;51.962;5.974;2024-01-15T05:36:47;99932.53;;;-0.78;100.00
59757;BME280;45631;51.962;5.974;2024-01-15T05:39:16;99935.91;;;-0.76;100.00
59757;BME280;45631;51.962;5.974;2024-01-15T05:41:49;99932.53;;;-0.78;100.00
59757;BME280;45631;51.962;5.974;2024-01-15T05:44:17;99934.22;;;-0.77;100.00
59757;BME280;45631;51.962;5.974;2024-01-15T05:46:46;99936.91;;;-0.80;100.00
59757;BME280;45631;51.962;5.974;2024-01-15T05:49:14;99939.47;;;-0.80;100.00
59757;BME280;45631;51.962;5.974;2024-01-15T05:51:43;99937.72;;;-0.79;100.00
59757;BME280;45631;51.962;5.974;2024-01-15T05:54:12;99935.03;;;-0.75;100.00
59757;BME280;45631;51.962;5.974;2024-01-15T05:56:42;99933.16;;;-0.71;100.00
59757;BME280;45631;51.962;5.974;2024-01-15T05:59:11;99942.66;;;-0.72;100.00
59757;BME280;45631;51.962;5.974;2024-01-15T06:01:41;99942.59;;;-0.70;100.00
59757;BME280;45631;51.962;5.974;2024-01-15T06:04:10;99939.25;;;-0.72;100.00
59757;BME280;45631;51.962;5.974;2024-01-15T06:06:38;99931.50;;;-0.72;100.00
59757;BME280;45631;51.962;5.974;2024-01-15T06:09:08;99934.84;;;-0.70;100.00
59757;BME280;45631;51.962;5.974;2024-01-15T06:11:36;99938.25;;;-0.68;100.00
59757;BME280;45631;51.962;5.974;2024-01-15T06:14:04;99941.50;;;-0.63;100.00
59757;BME280;45631;51.962;5.974;2024-01-15T06:16:32;99945.78;;;-0.62;100.00
59757;BME280;45631;51.962;5.974;2024-01-15T06:19:00;99944.78;;;-0.58;100.00
59757;BME280;45631;51.962;5.974;2024-01-15T06:21:29;99941.25;;;-0.55;100.00
59757;BME280;45631;51.962;5.974;2024-01-15T06:23:57;99947.25;;;-0.55;100.00
59757;BME280;45631;51.962;5.974;2024-01-15T06:26:26;99943.72;;;-0.52;100.00
59757;BME280;45631;51.962;5.974;2024-01-15T06:28:54;99941.94;;;-0.50;100.00
59757;BME280;45631;51.962;5.974;2024-01-15T06:31:23;99941.94;;;-0.50;100.00
59757;BME280;45631;51.962;5.974;2024-01-15T06:33:51;99945.31;;;-0.48;100.00
59757;BME280;45631;51.962;5.974;2024-01-15T06:36:19;99942.59;;;-0.43;100.00
59757;BME280;45631;51.962;5.974;2024-01-15T06:38:48;99942.47;;;-0.40;100.00
59757;BME280;45631;51.962;5.974;2024-01-15T06:41:16;99939.91;;;-0.40;100.00
59757;BME280;45631;51.962;5.974;2024-01-15T06:43:45;99950.13;;;-0.37;100.00
59757;BME280;45631;51.962;5.974;2024-01-15T06:46:19;99950.16;;;-0.39;100.00
59757;BME280;45631;51.962;5.974;2024-01-15T06:48:48;99956.28;;;-0.41;100.00
59757;BME280;45631;51.962;5.974;2024-01-15T06:51:16;99950.13;;;-0.37;100.00
59757;BME280;45631;51.962;5.974;2024-01-15T06:53:44;99949.34;;;-0.39;100.00
59757;BME280;45631;51.962;5.974;2024-01-15T06:56:13;99954.66;;;-0.44;100.00
59757;BME280;45631;51.962;5.974;2024-01-15T06:58:43;99952.94;;;-0.43;100.00
59757;BME280;45631;51.962;5.974;2024-01-15T07:01:13;99940.16;;;-0.48;100.00
59757;BME280;45631;51.962;5.974;2024-01-15T07:03:41;99944.38;;;-0.45;100.00
59757;BME280;45631;51.962;5.974;2024-01-15T07:06:10;99942.66;;;-0.46;100.00
59757;BME280;45631;51.962;5.974;2024-01-15T07:08:39;99940.09;;;-0.46;100.00
59757;BME280;45631;51.962;5.974;2024-01-15T07:11:07;99941.84;;;-0.47;100.00
59757;BME280;45631;51.962;5.974;2024-01-15T07:13:36;99941.78;;;-0.45;100.00
59757;BME280;45631;51.962;5.974;2024-01-15T07:16:05;99937.56;;;-0.48;100.00
59757;BME280;45631;51.962;5.974;2024-01-15T07:18:35;99934.03;;;-0.45;100.00
59757;BME280;45631;51.962;5.974;2024-01-15T07:21:06;99928.88;;;-0.45;100.00
59757;BME280;45631;51.962;5.974;2024-01-15T07:23:34;99921.16;;;-0.47;100.00
59757;BME280;45631;51.962;5.974;2024-01-15T07:26:04;99923.75;;;-0.47;100.00
59757;BME280;45631;51.962;5.974;2024-01-15T07:28:32;99924.59;;;-0.46;100.00
59757;BME280;45631;51.962;5.974;2024-01-15T07:31:00;99929.75;;;-0.46;100.00
59757;BME280;45631;51.962;5.974;2024-01-15T07:33:29;99934.16;;;-0.48;100.00
59757;BME280;45631;51.962;5.974;2024-01-15T07:35:59;99934.97;;;-0.48;100.00
59757;BME280;45631;51.962;5.974;2024-01-15T07:38:29;99931.44;;;-0.45;100.00
59757;BME280;45631;51.962;5.974;2024-01-15T07:40:57;99928.91;;;-0.47;100.00
59757;BME280;45631;51.962;5.974;2024-01-15T07:43:26;99924.69;;;-0.49;100.00
59757;BME280;45631;51.962;5.974;2024-01-15T07:45:54;99934.91;;;-0.45;100.00
59757;BME280;45631;51.962;5.974;2024-01-15T07:48:22;99937.41;;;-0.43;100.00
59757;BME280;45631;51.962;5.974;2024-01-15T07:50:54;99937.50;;;-0.46;100.00
59757;BME280;45631;51.962;5.974;2024-01-15T07:53:23;99936.56;;;-0.44;100.00
59757;BME280;45631;51.962;5.974;2024-01-15T07:55:51;99944.22;;;-0.41;100.00
59757;BME280;45631;51.962;5.974;2024-01-15T07:58:19;99946.13;;;-0.46;100.00
59757;BME280;45631;51.962;5.974;2024-01-15T08:00:48;99955.56;;;-0.45;100.00
59757;BME280;45631;51.962;5.974;2024-01-15T08:03:16;99957.34;;;-0.47;100.00
59757;BME280;45631;51.962;5.974;2024-01-15T08:05:44;99958.09;;;-0.43;100.00
59757;BME280;45631;51.962;5.974;2024-01-15T08:08:13;99961.50;;;-0.43;100.00
59757;BME280;45631;51.962;5.974;2024-01-15T08:10:43;99949.44;;;-0.42;100.00
59757;BME280;45631;51.962;5.974;2024-01-15T08:13:11;99943.41;;;-0.43;100.00
59757;BME280;45631;51.962;5.974;2024-01-15T08:15:40;99945.25;;;-0.46;100.00
59757;BME280;45631;51.962;5.974;2024-01-15T08:18:08;99948.69;;;-0.46;100.00
59757;BME280;45631;51.962;5.974;2024-01-15T08:20:39;99946.13;;;-0.46;100.00
59757;BME280;45631;51.962;5.974;2024-01-15T08:23:08;99944.38;;;-0.45;100.00
59757;BME280;45631;51.962;5.974;2024-01-15T08:25:36;99941.66;;;-0.41;100.00
59757;BME280;45631;51.962;5.974;2024-01-15T08:28:06;99952.81;;;-0.40;100.00
59757;BME280;45631;51.962;5.974;2024-01-15T08:30:35;99945.88;;;-0.40;100.00
59757;BME280;45631;51.962;5.974;2024-01-15T08:33:03;99942.41;;;-0.39;100.00
59757;BME280;45631;51.962;5.974;2024-01-15T08:35:46;99951.03;;;-0.38;100.00
59757;BME280;45631;51.962;5.974;2024-01-15T08:38:14;99937.88;;;-0.32;100.00
59757;BME280;45631;51.962;5.974;2024-01-15T08:40:43;99934.34;;;-0.29;100.00
59757;BME280;45631;51.962;5.974;2024-01-15T08:43:12;99940.59;;;-0.35;100.00
59757;BME280;45631;51.962;5.974;2024-01-15T08:45:40;99937.19;;;-0.37;100.00
59757;BME280;45631;51.962;5.974;2024-01-15T08:48:09;99936.38;;;-0.38;100.00
59757;BME280;45631;51.962;5.974;2024-01-15T08:50:37;99932.78;;;-0.33;100.00
59757;BME280;45631;51.962;5.974;2024-01-15T08:53:05;99938.91;;;-0.36;100.00
59757;BME280;45631;51.962;5.974;2024-01-15T08:55:33;99940.66;;;-0.37;100.00
59757;BME280;45631;51.962;5.974;2024-01-15T08:58:01;99952.69;;;-0.37;100.00
59757;BME280;45631;51.962;5.974;2024-01-15T09:00:31;99957.88;;;-0.37;100.00
59757;BME280;45631;51.962;5.974;2024-01-15T09:03:00;99951.88;;;-0.38;100.00
59757;BME280;45631;51.962;5.974;2024-01-15T09:05:31;99956.97;;;-0.36;100.00
59757;BME280;45631;51.962;5.974;2024-01-15T09:07:59;99970.00;;;-0.39;100.00
59757;BME280;45631;51.962;5.974;2024-01-15T09:10:27;99975.06;;;-0.36;100.00
59757;BME280;45631;51.962;5.974;2024-01-15T09:12:58;99974.22;;;-0.37;100.00
59757;BME280;45631;51.962;5.974;2024-01-15T09:15:27;99959.69;;;-0.39;100.00
59757;BME280;45631;51.962;5.974;2024-01-15T09:17:57;99952.81;;;-0.40;100.00
59757;BME280;45631;51.962;5.974;2024-01-15T09:20:28;99962.38;;;-0.42;100.00
59757;BME280;45631;51.962;5.974;2024-01-15T09:22:57;99955.41;;;-0.40;100.00
59757;BME280;45631;51.962;5.974;2024-01-15T09:25:25;99954.41;;;-0.36;100.00
59757;BME280;45631;51.962;5.974;2024-01-15T09:27:53;99966.31;;;-0.32;100.00
59757;BME280;45631;51.962;5.974;2024-01-15T09:30:21;99961.03;;;-0.29;100.00
59757;BME280;45631;51.962;5.974;2024-01-15T09:32:50;99969.66;;;-0.28;100.00
59757;BME280;45631;51.962;5.974;2024-01-15T09:35:19;99960.16;;;-0.28;100.00
59757;BME280;45631;51.962;5.974;2024-01-15T09:37:50;99960.94;;;-0.26;100.00
59757;BME280;45631;51.962;5.974;2024-01-15T09:40:20;99949.63;;;-0.23;100.00
59757;BME280;45631;51.962;5.974;2024-01-15T09:42:49;99962.16;;;-0.11;100.00
59757;BME280;45631;51.962;5.974;2024-01-15T09:45:19;99947.38;;;-0.07;100.00
59757;BME280;45631;51.962;5.974;2024-01-15T09:47:47;99945.53;;;-0.04;100.00
59757;BME280;45631;51.962;5.974;2024-01-15T09:50:16;99949.69;;;0.01;100.00
59757;BME280;45631;51.962;5.974;2024-01-15T09:52:46;99945.25;;;0.04;100.00
59757;BME280;45631;51.962;5.974;2024-01-15T09:55:15;99951.97;;;0.10;100.00
59757;BME280;45631;51.962;5.974;2024-01-15T09:57:44;99948.25;;;0.17;100.00
59757;BME280;45631;51.962;5.974;2024-01-15T10:00:14;99946.59;;;0.14;100.00
59757;BME280;45631;51.962;5.974;2024-01-15T10:02:45;99947.63;;;0.10;100.00
59757;BME280;45631;51.962;5.974;2024-01-15T10:05:13;99947.72;;;0.07;100.00
59757;BME280;45631;51.962;5.974;2024-01-15T10:07:42;99952.03;;;0.07;100.00
59757;BME280;45631;51.962;5.974;2024-01-15T10:10:14;99963.31;;;0.06;100.00
59757;BME280;45631;51.962;5.974;2024-01-15T10:12:42;99964.19;;;0.05;100.00
59757;BME280;45631;51.962;5.974;2024-01-15T10:15:11;99966.53;;;0.11;100.00
59757;BME280;45631;51.962;5.974;2024-01-15T10:17:40;99957.78;;;0.15;100.00
59757;BME280;45631;51.962;5.974;2024-01-15T10:20:10;99962.81;;;0.20;100.00
59757;BME280;45631;51.962;5.974;2024-01-15T10:22:40;99952.13;;;0.29;100.00
59757;BME280;45631;51.962;5.974;2024-01-15T10:25:10;99965.84;;;0.31;100.00
59757;BME280;45631;51.962;5.974;2024-01-15T10:27:40;99957.00;;;0.37;100.00
59757;BME280;45631;51.962;5.974;2024-01-15T10:30:10;99958.97;;;0.54;100.00
59757;BME280;45631;51.962;5.974;2024-01-15T10:32:40;99956.03;;;0.63;100.00
59757;BME280;45631;51.962;5.974;2024-01-15T10:35:09;99953.63;;;0.58;100.00
59757;BME280;45631;51.962;5.974;2024-01-15T10:37:37;99953.75;;;0.55;100.00
59757;BME280;45631;51.962;5.974;2024-01-15T10:40:06;99954.06;;;0.46;100.00
59757;BME280;45631;51.962;5.974;2024-01-15T10:42:35;99957.56;;;0.45;100.00
59757;BME280;45631;51.962;5.974;2024-01-15T10:45:05;99960.53;;;0.34;100.00
59757;BME280;45631;51.962;5.974;2024-01-15T10:47:36;99957.94;;;0.34;100.00
59757;BME280;45631;51.962;5.974;2024-01-15T10:50:06;99952.00;;;0.32;100.00
59757;BME280;45631;51.962;5.974;2024-01-15T10:52:35;99956.34;;;0.31;100.00
59757;BME280;45631;51.962;5.974;2024-01-15T10:55:04;99948.59;;;0.31;100.00
59757;BME280;45631;51.962;5.974;2024-01-15T10:57:40;99946.72;;;0.35;100.00
59757;BME280;45631;51.962;5.974;2024-01-15T11:00:10;99946.50;;;0.41;100.00
59757;BME280;45631;51.962;5.974;2024-01-15T11:02:42;99952.34;;;0.46;100.00
59757;BME280;45631;51.962;5.974;2024-01-15T11:05:11;99962.56;;;0.49;100.00
59757;BME280;45631;51.962;5.974;2024-01-15T11:07:40;99949.63;;;0.49;100.00
59757;BME280;45631;51.962;5.974;2024-01-15T11:10:40;99955.91;;;0.44;100.00
59757;BME280;45631;51.962;5.974;2024-01-15T11:13:10;99950.88;;;0.39;100.00
59757;BME280;45631;51.962;5.974;2024-01-15T11:16:00;99949.19;;;0.38;100.00
59757;BME280;45631;51.962;5.974;2024-01-15T11:18:29;99952.78;;;0.34;100.00
59757;BME280;45631;51.962;5.974;2024-01-15T11:21:20;99945.25;;;0.28;100.00
59757;BME280;45631;51.962;5.974;2024-01-15T11:23:49;99948.84;;;0.24;100.00
59757;BME280;45631;51.962;5.974;2024-01-15T11:26:37;99953.91;;;0.27;100.00
59757;BME280;45631;51.962;5.974;2024-01-15T11:29:06;99959.78;;;0.32;100.00
59757;BME280;45631;51.962;5.974;2024-01-15T11:31:59;99965.69;;;0.36;100.00
59757;BME280;45631;51.962;5.974;2024-01-15T11:34:58;99963.38;;;0.28;100.00
59757;BME280;45631;51.962;5.974;2024-01-15T11:37:58;99960.72;;;0.29;100.00
59757;BME280;45631;51.962;5.974;2024-01-15T11:40:39;99964.94;;;0.32;100.00
59757;BME280;45631;51.962;5.974;2024-01-15T11:43:09;99964.75;;;0.37;100.00
59757;BME280;45631;51.962;5.974;2024-01-15T11:45:40;99958.50;;;0.42;100.00
59757;BME280;45631;51.962;5.974;2024-01-15T11:48:12;99966.06;;;0.48;100.00
59757;BME280;45631;51.962;5.974;2024-01-15T11:50:42;99971.03;;;0.55;100.00
59757;BME280;45631;51.962;5.974;2024-01-15T11:53:16;99960.47;;;0.59;100.00
59757;BME280;45631;51.962;5.974;2024-01-15T11:55:46;99957.72;;;0.64;100.00
59757;BME280;45631;51.962;5.974;2024-01-15T11:58:15;99955.84;;;0.67;100.00
59757;BME280;45631;51.962;5.974;2024-01-15T12:00:45;99962.78;;;0.67;100.00
59757;BME280;45631;51.962;5.974;2024-01-15T12:03:21;99961.03;;;0.67;100.00
59757;BME280;45631;51.962;5.974;2024-01-15T12:05:52;99965.25;;;0.70;100.00
59757;BME280;45631;51.962;5.974;2024-01-15T12:08:21;99970.38;;;0.72;100.00
59757;BME280;45631;51.962;5.974;2024-01-15T12:10:50;99965.13;;;0.73;100.00
59757;BME280;45631;51.962;5.974;2024-01-15T12:13:19;99962.47;;;0.75;100.00
59757;BME280;45631;51.962;5.974;2024-01-15T12:15:48;99956.34;;;0.77;100.00
59757;BME280;45631;51.962;5.974;2024-01-15T12:18:18;99960.75;;;0.75;100.00
59757;BME280;45631;51.962;5.974;2024-01-15T12:20:48;99965.81;;;0.78;100.00
59757;BME280;45631;51.962;5.974;2024-01-15T12:23:17;99966.53;;;0.82;100.00
59757;BME280;45631;51.962;5.974;2024-01-15T12:25:45;99970.91;;;0.80;100.00
59757;BME280;45631;51.962;5.974;2024-01-15T12:28:15;99966.56;;;0.80;100.00
59757;BME280;45631;51.962;5.974;2024-01-15T12:30:46;99979.41;;;0.83;100.00
59757;BME280;45631;51.962;5.974;2024-01-15T12:33:18;99986.84;;;0.93;100.00
59757;BME280;45631;51.962;5.974;2024-01-15T12:35:49;100001.22;;;1.00;100.00
59757;BME280;45631;51.962;5.974;2024-01-15T12:38:20;100006.56;;;0.95;100.00
59757;BME280;45631;51.962;5.974;2024-01-15T12:40:51;100008.25;;;0.96;100.00
59757;BME280;45631;51.962;5.974;2024-01-15T12:43:20;100007.47;;;0.94;100.00
59757;BME280;45631;51.962;5.974;2024-01-15T12:45:48;100019.69;;;0.91;100.00
59757;BME280;45631;51.962;5.974;2024-01-15T12:48:16;100033.84;;;0.82;100.00
59757;BME280;45631;51.962;5.974;2024-01-15T12:50:45;100035.91;;;0.72;100.00
59757;BME280;45631;51.962;5.974;2024-01-15T12:53:16;100041.09;;;0.72;100.00
59757;BME280;45631;51.962;5.974;2024-01-15T12:55:45;100026.00;;;0.60;100.00
59757;BME280;45631;51.962;5.974;2024-01-15T12:58:13;100017.03;;;0.46;100.00
59757;BME280;45631;51.962;5.974;2024-01-15T13:00:44;100016.91;;;0.49;100.00
59757;BME280;45631;51.962;5.974;2024-01-15T13:03:14;100013.19;;;0.57;100.00